AFR6199 LFKB-LFPG
Flight info
| Callsign | AFR6199 |
|---|---|
| Flight time | 1h 40m |
| Altitude | 30000 |
| Route | AKUTI UM616 PIGOS/N0448F360 DCT BARSO DCT OKTET DCT GIPNO DCT LOGNI DCT MOKIP DCT ARFOZ DCT TINIL |
| Aircraft | A320/M-SDE3FGHIRWY/LB1 |
Departure
| Time | 2026-04-20 05:37 |
|---|---|
| Airport | Bastia-Poretta International airport (LFKB) |
Arrival
| Time | 2026-04-20 07:18 |
|---|---|
| Airport | Charles de Gaulle International Airport (LFPG) |
| Time | Latitude | Longitude | Altitude | Speed | Heading |
|---|---|---|---|---|---|
| 2026-04-20 05:18 | 42.54890 | 9.48144 | 39 ft | 0 kts | 284° |
| 2026-04-20 05:30 | 42.54888 | 9.48158 | 39 ft | 2 kts | 281° |
| 2026-04-20 05:30 | 42.54884 | 9.48180 | 38 ft | 2 kts | 283° |
| 2026-04-20 05:31 | 42.54880 | 9.48201 | 36 ft | 2 kts | 284° |
| 2026-04-20 05:31 | 42.54876 | 9.48223 | 37 ft | 2 kts | 285° |
| 2026-04-20 05:31 | 42.54872 | 9.48244 | 37 ft | 2 kts | 289° |
| 2026-04-20 05:31 | 42.54865 | 9.48264 | 35 ft | 2 kts | 335° |
| 2026-04-20 05:32 | 42.54862 | 9.48267 | 36 ft | 0 kts | 351° |
| 2026-04-20 05:32 | 42.54866 | 9.48265 | 37 ft | 3 kts | 346° |
| 2026-04-20 05:32 | 42.54915 | 9.48248 | 39 ft | 9 kts | 345° |
| 2026-04-20 05:33 | 42.54978 | 9.48234 | 38 ft | 10 kts | 353° |
| 2026-04-20 05:33 | 42.55061 | 9.48204 | 38 ft | 15 kts | 342° |
| 2026-04-20 05:33 | 42.55171 | 9.48157 | 35 ft | 19 kts | 343° |
| 2026-04-20 05:33 | 42.55302 | 9.48103 | 34 ft | 21 kts | 343° |
| 2026-04-20 05:34 | 42.55444 | 9.48043 | 35 ft | 22 kts | 342° |
| 2026-04-20 05:34 | 42.55597 | 9.47979 | 34 ft | 24 kts | 343° |
| 2026-04-20 05:34 | 42.55883 | 9.47863 | 33 ft | 15 kts | 355° |
| 2026-04-20 05:35 | 42.55952 | 9.47944 | 32 ft | 13 kts | 71° |
| 2026-04-20 05:35 | 42.55972 | 9.48056 | 32 ft | 11 kts | 102° |
| 2026-04-20 05:35 | 42.55923 | 9.48100 | 32 ft | 0 kts | 162° |
| 2026-04-20 05:36 | 42.55845 | 9.48133 | 32 ft | 42 kts | 163° |
| 2026-04-20 05:37 | 42.55315 | 9.48352 | 40 ft | 112 kts | 163° |
| 2026-04-20 05:37 | 42.54408 | 9.48698 | 244 ft | 146 kts | 166° |
| 2026-04-20 05:37 | 42.53450 | 9.49083 | 972 ft | 143 kts | 163° |
| 2026-04-20 05:37 | 42.52491 | 9.49465 | 1634 ft | 145 kts | 161° |
| 2026-04-20 05:38 | 42.51653 | 9.50232 | 2089 ft | 154 kts | 126° |
| 2026-04-20 05:38 | 42.51301 | 9.51674 | 2335 ft | 175 kts | 88° |
| 2026-04-20 05:38 | 42.51749 | 9.53294 | 2548 ft | 198 kts | 56° |
| 2026-04-20 05:38 | 42.52279 | 9.54366 | 2694 ft | 215 kts | 56° |
| 2026-04-20 05:39 | 42.53158 | 9.56145 | 3035 ft | 239 kts | 55° |
| 2026-04-20 05:39 | 42.54267 | 9.57997 | 3425 ft | 261 kts | 34° |
| 2026-04-20 05:39 | 42.55974 | 9.58803 | 4091 ft | 267 kts | 358° |
| 2026-04-20 05:39 | 42.57709 | 9.58126 | 4889 ft | 266 kts | 323° |
| 2026-04-20 05:40 | 42.59006 | 9.56325 | 5778 ft | 265 kts | 304° |
| 2026-04-20 05:40 | 42.60016 | 9.54240 | 6696 ft | 264 kts | 301° |
| 2026-04-20 05:40 | 42.60990 | 9.52124 | 7562 ft | 265 kts | 301° |
| 2026-04-20 05:40 | 42.61966 | 9.49997 | 8407 ft | 267 kts | 301° |
| 2026-04-20 05:41 | 42.62982 | 9.47879 | 9247 ft | 269 kts | 305° |
| 2026-04-20 05:41 | 42.64172 | 9.45902 | 10103 ft | 271 kts | 310° |
| 2026-04-20 05:41 | 42.65466 | 9.43980 | 10617 ft | 285 kts | 311° |
| 2026-04-20 05:41 | 42.66881 | 9.41942 | 10819 ft | 308 kts | 311° |
| 2026-04-20 05:42 | 42.68382 | 9.39778 | 11243 ft | 320 kts | 311° |
| 2026-04-20 05:42 | 42.69913 | 9.37544 | 11930 ft | 325 kts | 311° |
| 2026-04-20 05:42 | 42.71458 | 9.35288 | 12626 ft | 328 kts | 314° |
| 2026-04-20 05:42 | 42.73258 | 9.33336 | 13331 ft | 335 kts | 325° |
| 2026-04-20 05:43 | 42.75310 | 9.31791 | 13982 ft | 339 kts | 329° |
| 2026-04-20 05:43 | 42.77401 | 9.30262 | 14594 ft | 342 kts | 329° |
| 2026-04-20 05:43 | 42.79503 | 9.28719 | 15221 ft | 345 kts | 329° |
| 2026-04-20 05:43 | 42.81619 | 9.27163 | 15848 ft | 347 kts | 329° |
| 2026-04-20 05:44 | 42.83748 | 9.25593 | 16461 ft | 350 kts | 329° |
| 2026-04-20 05:44 | 42.85896 | 9.24004 | 17082 ft | 352 kts | 329° |
| 2026-04-20 05:44 | 42.88059 | 9.22405 | 17666 ft | 355 kts | 329° |
| 2026-04-20 05:44 | 42.90240 | 9.20786 | 18277 ft | 358 kts | 328° |
| 2026-04-20 05:45 | 42.92403 | 9.19092 | 18784 ft | 360 kts | 327° |
| 2026-04-20 05:45 | 42.94555 | 9.17331 | 19311 ft | 361 kts | 326° |
| 2026-04-20 05:45 | 42.96706 | 9.15537 | 19838 ft | 363 kts | 326° |
| 2026-04-20 05:45 | 42.98886 | 9.13709 | 20362 ft | 364 kts | 326° |
| 2026-04-20 05:46 | 43.01054 | 9.11898 | 20885 ft | 366 kts | 326° |
| 2026-04-20 05:46 | 43.03232 | 9.10092 | 21395 ft | 368 kts | 326° |
| 2026-04-20 05:46 | 43.05432 | 9.08282 | 21897 ft | 369 kts | 326° |
| 2026-04-20 05:46 | 43.07628 | 9.06482 | 22447 ft | 369 kts | 327° |
| 2026-04-20 05:47 | 43.09839 | 9.04666 | 22912 ft | 371 kts | 326° |
| 2026-04-20 05:47 | 43.12054 | 9.02842 | 23379 ft | 373 kts | 326° |
| 2026-04-20 05:47 | 43.14283 | 9.01004 | 23800 ft | 375 kts | 326° |
| 2026-04-20 05:47 | 43.16525 | 8.99152 | 24187 ft | 377 kts | 326° |
| 2026-04-20 05:48 | 43.18770 | 8.97289 | 24563 ft | 378 kts | 325° |
| 2026-04-20 05:48 | 43.20847 | 8.95102 | 24935 ft | 377 kts | 315° |
| 2026-04-20 05:48 | 43.22579 | 8.92402 | 25287 ft | 378 kts | 305° |
| 2026-04-20 05:48 | 43.23897 | 8.89285 | 25645 ft | 380 kts | 295° |
| 2026-04-20 05:49 | 43.24829 | 8.85885 | 26002 ft | 382 kts | 291° |
| 2026-04-20 05:49 | 43.25715 | 8.82443 | 26356 ft | 384 kts | 291° |
| 2026-04-20 05:49 | 43.26611 | 8.78987 | 26699 ft | 385 kts | 291° |
| 2026-04-20 05:49 | 43.27510 | 8.75517 | 27058 ft | 387 kts | 291° |
| 2026-04-20 05:50 | 43.28412 | 8.72031 | 27413 ft | 388 kts | 291° |
| 2026-04-20 05:50 | 43.29316 | 8.68541 | 27781 ft | 389 kts | 291° |
| 2026-04-20 05:50 | 43.30219 | 8.65042 | 28145 ft | 390 kts | 291° |
| 2026-04-20 05:50 | 43.31123 | 8.61521 | 28468 ft | 392 kts | 291° |
| 2026-04-20 05:51 | 43.32034 | 8.57972 | 28740 ft | 395 kts | 291° |
| 2026-04-20 05:51 | 43.32950 | 8.54405 | 29031 ft | 397 kts | 291° |
| 2026-04-20 05:51 | 43.33866 | 8.50823 | 29332 ft | 398 kts | 291° |
| 2026-04-20 05:51 | 43.34785 | 8.47222 | 29628 ft | 400 kts | 290° |
| 2026-04-20 05:52 | 43.35715 | 8.43561 | 29909 ft | 401 kts | 290° |
| 2026-04-20 05:52 | 43.36628 | 8.39961 | 29989 ft | 394 kts | 290° |
| 2026-04-20 05:52 | 43.38396 | 8.32979 | 29981 ft | 382 kts | 291° |
| 2026-04-20 05:53 | 43.40138 | 8.26125 | 29990 ft | 378 kts | 291° |
| 2026-04-20 05:53 | 43.41868 | 8.19295 | 29987 ft | 378 kts | 290° |
| 2026-04-20 05:54 | 43.43586 | 8.12468 | 29994 ft | 378 kts | 290° |
| 2026-04-20 05:54 | 43.45302 | 8.05633 | 29990 ft | 378 kts | 290° |
| 2026-04-20 05:55 | 43.47018 | 7.98796 | 29982 ft | 377 kts | 290° |
| 2026-04-20 05:55 | 43.48738 | 7.91914 | 29962 ft | 378 kts | 290° |
| 2026-04-20 05:56 | 43.50439 | 7.85066 | 29968 ft | 378 kts | 290° |
| 2026-04-20 05:56 | 43.52147 | 7.78207 | 29967 ft | 379 kts | 290° |
| 2026-04-20 05:57 | 43.53845 | 7.71340 | 29971 ft | 379 kts | 290° |
| 2026-04-20 05:57 | 43.55538 | 7.64458 | 29974 ft | 379 kts | 290° |
| 2026-04-20 05:58 | 43.57228 | 7.57571 | 29961 ft | 379 kts | 290° |
| 2026-04-20 05:58 | 43.58916 | 7.50675 | 29993 ft | 380 kts | 290° |
| 2026-04-20 05:59 | 43.60604 | 7.43774 | 30002 ft | 379 kts | 290° |
| 2026-04-20 05:59 | 43.63055 | 7.37401 | 30002 ft | 378 kts | 308° |
| 2026-04-20 06:00 | 43.67139 | 7.32633 | 30196 ft | 394 kts | 323° |
| 2026-04-20 06:00 | 43.69439 | 7.30528 | 30327 ft | 398 kts | 323° |
| 2026-04-20 06:00 | 43.71756 | 7.28403 | 30447 ft | 402 kts | 323° |
| 2026-04-20 06:01 | 43.74099 | 7.26257 | 30647 ft | 404 kts | 323° |
| 2026-04-20 06:01 | 43.76438 | 7.24112 | 30909 ft | 404 kts | 323° |
| 2026-04-20 06:01 | 43.78782 | 7.21961 | 31274 ft | 403 kts | 323° |
| 2026-04-20 06:01 | 43.81118 | 7.19817 | 31655 ft | 402 kts | 323° |
| 2026-04-20 06:02 | 43.83442 | 7.17683 | 32035 ft | 400 kts | 323° |
| 2026-04-20 06:02 | 43.85755 | 7.15554 | 32401 ft | 398 kts | 323° |
| 2026-04-20 06:02 | 43.88088 | 7.13402 | 32713 ft | 397 kts | 323° |
| 2026-04-20 06:02 | 43.90386 | 7.11280 | 33061 ft | 396 kts | 323° |
| 2026-04-20 06:03 | 43.92674 | 7.09167 | 33376 ft | 395 kts | 323° |
| 2026-04-20 06:03 | 43.94960 | 7.07056 | 33708 ft | 394 kts | 323° |
| 2026-04-20 06:03 | 43.97236 | 7.04951 | 33999 ft | 393 kts | 323° |
| 2026-04-20 06:03 | 43.99511 | 7.02846 | 34246 ft | 393 kts | 323° |
| 2026-04-20 06:04 | 44.01785 | 7.00741 | 34530 ft | 393 kts | 323° |
| 2026-04-20 06:04 | 44.04066 | 6.98625 | 34738 ft | 394 kts | 323° |
| 2026-04-20 06:04 | 44.06348 | 6.96510 | 34971 ft | 395 kts | 323° |
| 2026-04-20 06:04 | 44.08633 | 6.94393 | 35182 ft | 395 kts | 323° |
| 2026-04-20 06:05 | 44.10918 | 6.92272 | 35406 ft | 395 kts | 323° |
| 2026-04-20 06:05 | 44.13199 | 6.90147 | 35640 ft | 395 kts | 323° |
| 2026-04-20 06:05 | 44.15482 | 6.88013 | 35842 ft | 395 kts | 323° |
| 2026-04-20 06:05 | 44.17761 | 6.85878 | 35961 ft | 396 kts | 323° |
| 2026-04-20 06:06 | 44.22324 | 6.81602 | 36006 ft | 396 kts | 323° |
| 2026-04-20 06:06 | 44.26899 | 6.77307 | 35998 ft | 396 kts | 323° |
| 2026-04-20 06:07 | 44.31479 | 6.73012 | 35997 ft | 396 kts | 323° |
| 2026-04-20 06:07 | 44.36057 | 6.68713 | 36007 ft | 396 kts | 323° |
| 2026-04-20 06:08 | 44.40628 | 6.64408 | 36006 ft | 396 kts | 323° |
| 2026-04-20 06:08 | 44.45196 | 6.60091 | 36015 ft | 397 kts | 323° |
| 2026-04-20 06:09 | 44.49781 | 6.55751 | 36002 ft | 398 kts | 323° |
| 2026-04-20 06:09 | 44.54377 | 6.51393 | 35998 ft | 399 kts | 323° |
| 2026-04-20 06:10 | 44.58978 | 6.47032 | 36007 ft | 399 kts | 322° |
| 2026-04-20 06:10 | 44.62823 | 6.43373 | 35994 ft | 399 kts | 322° |
| 2026-04-20 06:11 | 44.67408 | 6.38984 | 36018 ft | 399 kts | 323° |
| 2026-04-20 06:11 | 44.72004 | 6.34608 | 36021 ft | 399 kts | 323° |
| 2026-04-20 06:12 | 44.76631 | 6.30205 | 36023 ft | 399 kts | 323° |
| 2026-04-20 06:12 | 44.81223 | 6.25809 | 36024 ft | 399 kts | 322° |
| 2026-04-20 06:13 | 44.85778 | 6.21432 | 36022 ft | 399 kts | 322° |
| 2026-04-20 06:13 | 44.90397 | 6.16987 | 36007 ft | 400 kts | 322° |
| 2026-04-20 06:14 | 44.94988 | 6.12560 | 36016 ft | 400 kts | 322° |
| 2026-04-20 06:14 | 44.99576 | 6.08118 | 36031 ft | 400 kts | 322° |
| 2026-04-20 06:15 | 45.04163 | 6.03678 | 36056 ft | 399 kts | 322° |
| 2026-04-20 06:15 | 45.08747 | 5.99241 | 36040 ft | 399 kts | 322° |
| 2026-04-20 06:16 | 45.13334 | 5.94789 | 36049 ft | 400 kts | 322° |
| 2026-04-20 06:16 | 45.17921 | 5.90321 | 36050 ft | 400 kts | 322° |
| 2026-04-20 06:17 | 45.22509 | 5.85839 | 36056 ft | 400 kts | 322° |
| 2026-04-20 06:17 | 45.27128 | 5.81325 | 36070 ft | 401 kts | 322° |
| 2026-04-20 06:18 | 45.31722 | 5.76833 | 36067 ft | 401 kts | 322° |
| 2026-04-20 06:18 | 45.36308 | 5.72333 | 36088 ft | 400 kts | 322° |
| 2026-04-20 06:19 | 45.40882 | 5.67836 | 36089 ft | 399 kts | 322° |
| 2026-04-20 06:19 | 45.45453 | 5.63337 | 36116 ft | 400 kts | 322° |
| 2026-04-20 06:20 | 45.50031 | 5.58817 | 36104 ft | 401 kts | 322° |
| 2026-04-20 06:20 | 45.54612 | 5.54281 | 36097 ft | 401 kts | 322° |
| 2026-04-20 06:21 | 45.59619 | 5.50623 | 36101 ft | 407 kts | 332° |
| 2026-04-20 06:21 | 45.64800 | 5.47363 | 36102 ft | 407 kts | 332° |
| 2026-04-20 06:22 | 45.69972 | 5.44082 | 36103 ft | 407 kts | 332° |
| 2026-04-20 06:22 | 45.75156 | 5.40803 | 36110 ft | 407 kts | 332° |
| 2026-04-20 06:23 | 45.80340 | 5.37508 | 36109 ft | 407 kts | 332° |
| 2026-04-20 06:23 | 45.85521 | 5.34211 | 36138 ft | 407 kts | 332° |
| 2026-04-20 06:24 | 45.90708 | 5.30897 | 36114 ft | 408 kts | 332° |
| 2026-04-20 06:24 | 45.95903 | 5.27564 | 36103 ft | 409 kts | 332° |
| 2026-04-20 06:25 | 46.01137 | 5.24212 | 36096 ft | 409 kts | 332° |
| 2026-04-20 06:25 | 46.06343 | 5.20881 | 36119 ft | 410 kts | 332° |
| 2026-04-20 06:26 | 46.11559 | 5.17526 | 36108 ft | 411 kts | 332° |
| 2026-04-20 06:26 | 46.16776 | 5.14159 | 36103 ft | 410 kts | 332° |
| 2026-04-20 06:27 | 46.21998 | 5.10833 | 36108 ft | 412 kts | 335° |
| 2026-04-20 06:27 | 46.27675 | 5.09275 | 36123 ft | 424 kts | 354° |
| 2026-04-20 06:28 | 46.33583 | 5.09310 | 36104 ft | 425 kts | 355° |
| 2026-04-20 06:28 | 46.39499 | 5.09343 | 36102 ft | 426 kts | 355° |
| 2026-04-20 06:29 | 46.45429 | 5.09364 | 36102 ft | 426 kts | 354° |
| 2026-04-20 06:29 | 46.51356 | 5.09380 | 36112 ft | 426 kts | 355° |
| 2026-04-20 06:30 | 46.57295 | 5.09403 | 36106 ft | 427 kts | 355° |
| 2026-04-20 06:30 | 46.63232 | 5.09431 | 36104 ft | 427 kts | 355° |
| 2026-04-20 06:31 | 46.69174 | 5.09458 | 36102 ft | 427 kts | 355° |
| 2026-04-20 06:31 | 46.75111 | 5.09482 | 36101 ft | 427 kts | 355° |
| 2026-04-20 06:32 | 46.81054 | 5.09503 | 36105 ft | 427 kts | 355° |
| 2026-04-20 06:32 | 46.87006 | 5.09532 | 36126 ft | 427 kts | 355° |
| 2026-04-20 06:33 | 46.92989 | 5.09564 | 36118 ft | 427 kts | 355° |
| 2026-04-20 06:33 | 46.98936 | 5.09597 | 36113 ft | 427 kts | 355° |
| 2026-04-20 06:34 | 47.04878 | 5.09633 | 36107 ft | 427 kts | 355° |
| 2026-04-20 06:35 | 47.13804 | 5.09666 | 36123 ft | 428 kts | 355° |
| 2026-04-20 06:35 | 47.19756 | 5.09691 | 36119 ft | 428 kts | 355° |
| 2026-04-20 06:36 | 47.25708 | 5.09715 | 36118 ft | 428 kts | 354° |
| 2026-04-20 06:36 | 47.31664 | 5.09727 | 36160 ft | 428 kts | 354° |
| 2026-04-20 06:37 | 47.37612 | 5.09751 | 36152 ft | 428 kts | 354° |
| 2026-04-20 06:37 | 47.43589 | 5.09783 | 35545 ft | 435 kts | 354° |
| 2026-04-20 06:37 | 47.46647 | 5.09791 | 34527 ft | 443 kts | 354° |
| 2026-04-20 06:38 | 47.49728 | 5.09801 | 34024 ft | 438 kts | 354° |
| 2026-04-20 06:38 | 47.52760 | 5.09820 | 33355 ft | 435 kts | 353° |
| 2026-04-20 06:38 | 47.55757 | 5.09489 | 32470 ft | 429 kts | 343° |
| 2026-04-20 06:38 | 47.58589 | 5.08355 | 31909 ft | 415 kts | 334° |
| 2026-04-20 06:39 | 47.61195 | 5.06536 | 31324 ft | 404 kts | 324° |
| 2026-04-20 06:39 | 47.63454 | 5.04162 | 30788 ft | 394 kts | 316° |
| 2026-04-20 06:39 | 47.65504 | 5.01588 | 30256 ft | 389 kts | 316° |
| 2026-04-20 06:39 | 47.67579 | 4.98979 | 29670 ft | 384 kts | 316° |
| 2026-04-20 06:40 | 47.69598 | 4.96436 | 29178 ft | 378 kts | 315° |
| 2026-04-20 06:40 | 47.71590 | 4.93925 | 28645 ft | 372 kts | 315° |
| 2026-04-20 06:40 | 47.73551 | 4.91456 | 28141 ft | 367 kts | 316° |
| 2026-04-20 06:40 | 47.75487 | 4.89021 | 27677 ft | 361 kts | 316° |
| 2026-04-20 06:41 | 47.77384 | 4.86632 | 27379 ft | 356 kts | 316° |
| 2026-04-20 06:41 | 47.79259 | 4.84260 | 27025 ft | 352 kts | 315° |
| 2026-04-20 06:41 | 47.80490 | 4.82696 | 26771 ft | 350 kts | 315° |
| 2026-04-20 06:41 | 47.82335 | 4.80349 | 26409 ft | 348 kts | 315° |
| 2026-04-20 06:42 | 47.84168 | 4.78016 | 26047 ft | 345 kts | 315° |
| 2026-04-20 06:42 | 47.85988 | 4.75698 | 25689 ft | 343 kts | 316° |
| 2026-04-20 06:42 | 47.87794 | 4.73398 | 25340 ft | 340 kts | 316° |
| 2026-04-20 06:42 | 47.89586 | 4.71114 | 24986 ft | 338 kts | 316° |
| 2026-04-20 06:43 | 47.91364 | 4.68844 | 24632 ft | 335 kts | 316° |
| 2026-04-20 06:43 | 47.93128 | 4.66589 | 24288 ft | 332 kts | 316° |
| 2026-04-20 06:43 | 47.94891 | 4.64332 | 23927 ft | 329 kts | 315° |
| 2026-04-20 06:43 | 47.96626 | 4.62112 | 23566 ft | 327 kts | 316° |
| 2026-04-20 06:44 | 47.98349 | 4.59904 | 23216 ft | 326 kts | 315° |
| 2026-04-20 06:44 | 48.00066 | 4.57697 | 22863 ft | 325 kts | 316° |
| 2026-04-20 06:44 | 48.01775 | 4.55500 | 22525 ft | 324 kts | 316° |
| 2026-04-20 06:44 | 48.03482 | 4.53306 | 22184 ft | 323 kts | 316° |
| 2026-04-20 06:45 | 48.05182 | 4.51122 | 21852 ft | 322 kts | 316° |
| 2026-04-20 06:45 | 48.06879 | 4.48940 | 21521 ft | 321 kts | 316° |
| 2026-04-20 06:45 | 48.08569 | 4.46761 | 21179 ft | 320 kts | 316° |
| 2026-04-20 06:45 | 48.10251 | 4.44590 | 20842 ft | 319 kts | 316° |
| 2026-04-20 06:46 | 48.11931 | 4.42422 | 20506 ft | 318 kts | 316° |
| 2026-04-20 06:46 | 48.13609 | 4.40257 | 20182 ft | 318 kts | 316° |
| 2026-04-20 06:46 | 48.15277 | 4.38104 | 19865 ft | 316 kts | 316° |
| 2026-04-20 06:46 | 48.16940 | 4.35954 | 19511 ft | 315 kts | 316° |
| 2026-04-20 06:47 | 48.18599 | 4.33806 | 19194 ft | 315 kts | 316° |
| 2026-04-20 06:47 | 48.20252 | 4.31663 | 18866 ft | 314 kts | 316° |
| 2026-04-20 06:47 | 48.21901 | 4.29518 | 18535 ft | 314 kts | 316° |
| 2026-04-20 06:47 | 48.23545 | 4.27375 | 18172 ft | 313 kts | 316° |
| 2026-04-20 06:48 | 48.25192 | 4.25234 | 17843 ft | 313 kts | 316° |
| 2026-04-20 06:48 | 48.26739 | 4.22959 | 17516 ft | 311 kts | 308° |
| 2026-04-20 06:48 | 48.28117 | 4.20454 | 17191 ft | 310 kts | 308° |
| 2026-04-20 06:48 | 48.29490 | 4.17957 | 16865 ft | 310 kts | 308° |
| 2026-04-20 06:49 | 48.30859 | 4.15462 | 16533 ft | 310 kts | 308° |
| 2026-04-20 06:49 | 48.32232 | 4.12955 | 16330 ft | 302 kts | 308° |
| 2026-04-20 06:49 | 48.33545 | 4.10561 | 16196 ft | 292 kts | 308° |
| 2026-04-20 06:49 | 48.34823 | 4.08235 | 15992 ft | 285 kts | 308° |
| 2026-04-20 06:50 | 48.36078 | 4.05947 | 15847 ft | 284 kts | 308° |
| 2026-04-20 06:50 | 48.37327 | 4.03657 | 15626 ft | 283 kts | 308° |
| 2026-04-20 06:50 | 48.38573 | 4.01369 | 15361 ft | 282 kts | 308° |
| 2026-04-20 06:50 | 48.39813 | 3.99096 | 15102 ft | 281 kts | 308° |
| 2026-04-20 06:51 | 48.41054 | 3.96819 | 14835 ft | 281 kts | 308° |
| 2026-04-20 06:51 | 48.42292 | 3.94548 | 14591 ft | 281 kts | 308° |
| 2026-04-20 06:51 | 48.43534 | 3.92275 | 14335 ft | 281 kts | 308° |
| 2026-04-20 06:51 | 48.44770 | 3.90010 | 14081 ft | 280 kts | 308° |
| 2026-04-20 06:52 | 48.46005 | 3.87742 | 13808 ft | 280 kts | 308° |
| 2026-04-20 06:52 | 48.47241 | 3.85470 | 13545 ft | 279 kts | 308° |
| 2026-04-20 06:52 | 48.48466 | 3.83213 | 13299 ft | 279 kts | 308° |
| 2026-04-20 06:52 | 48.49693 | 3.80947 | 13033 ft | 278 kts | 308° |
| 2026-04-20 06:53 | 48.50909 | 3.78697 | 12782 ft | 277 kts | 308° |
| 2026-04-20 06:53 | 48.52127 | 3.76440 | 12538 ft | 276 kts | 308° |
| 2026-04-20 06:53 | 48.53339 | 3.74199 | 12278 ft | 276 kts | 308° |
| 2026-04-20 06:53 | 48.54458 | 3.71859 | 12065 ft | 275 kts | 303° |
| 2026-04-20 06:54 | 48.55497 | 3.69439 | 11805 ft | 274 kts | 303° |
| 2026-04-20 06:54 | 48.56536 | 3.67033 | 11545 ft | 273 kts | 303° |
| 2026-04-20 06:54 | 48.57588 | 3.64594 | 11293 ft | 273 kts | 303° |
| 2026-04-20 06:54 | 48.58618 | 3.62196 | 11043 ft | 272 kts | 303° |
| 2026-04-20 06:55 | 48.59646 | 3.59800 | 10811 ft | 272 kts | 303° |
| 2026-04-20 06:55 | 48.60670 | 3.57415 | 10564 ft | 270 kts | 303° |
| 2026-04-20 06:55 | 48.61690 | 3.55043 | 10321 ft | 269 kts | 303° |
| 2026-04-20 06:55 | 48.62708 | 3.52672 | 10104 ft | 268 kts | 303° |
| 2026-04-20 06:56 | 48.63724 | 3.50300 | 9977 ft | 269 kts | 303° |
| 2026-04-20 06:56 | 48.64738 | 3.47926 | 9845 ft | 268 kts | 303° |
| 2026-04-20 06:56 | 48.65751 | 3.45558 | 9702 ft | 268 kts | 303° |
| 2026-04-20 06:56 | 48.66763 | 3.43189 | 9568 ft | 268 kts | 304° |
| 2026-04-20 06:57 | 48.67775 | 3.40820 | 9427 ft | 268 kts | 303° |
| 2026-04-20 06:57 | 48.68799 | 3.38415 | 9296 ft | 268 kts | 303° |
| 2026-04-20 06:57 | 48.69806 | 3.36047 | 9166 ft | 268 kts | 303° |
| 2026-04-20 06:57 | 48.70812 | 3.33678 | 9034 ft | 268 kts | 303° |
| 2026-04-20 06:58 | 48.71819 | 3.31306 | 8904 ft | 267 kts | 303° |
| 2026-04-20 06:58 | 48.72820 | 3.28945 | 8765 ft | 267 kts | 303° |
| 2026-04-20 06:58 | 48.73824 | 3.26577 | 8639 ft | 267 kts | 303° |
| 2026-04-20 06:58 | 48.74825 | 3.24218 | 8512 ft | 267 kts | 303° |
| 2026-04-20 06:59 | 48.75831 | 3.21847 | 8377 ft | 267 kts | 303° |
| 2026-04-20 06:59 | 48.76831 | 3.19488 | 8248 ft | 266 kts | 303° |
| 2026-04-20 06:59 | 48.77832 | 3.17123 | 8129 ft | 266 kts | 303° |
| 2026-04-20 06:59 | 48.78832 | 3.14758 | 7996 ft | 266 kts | 303° |
| 2026-04-20 07:00 | 48.79832 | 3.12389 | 7880 ft | 265 kts | 304° |
| 2026-04-20 07:00 | 48.80833 | 3.10014 | 7739 ft | 265 kts | 303° |
| 2026-04-20 07:00 | 48.81839 | 3.07629 | 7620 ft | 265 kts | 303° |
| 2026-04-20 07:00 | 48.82833 | 3.05269 | 7483 ft | 265 kts | 304° |
| 2026-04-20 07:01 | 48.83823 | 3.02916 | 7351 ft | 265 kts | 304° |
| 2026-04-20 07:01 | 48.84900 | 3.00662 | 7236 ft | 263 kts | 314° |
| 2026-04-20 07:01 | 48.86144 | 2.98617 | 7112 ft | 264 kts | 314° |
| 2026-04-20 07:01 | 48.87382 | 2.96568 | 6999 ft | 263 kts | 314° |
| 2026-04-20 07:02 | 48.88617 | 2.94512 | 6880 ft | 263 kts | 314° |
| 2026-04-20 07:02 | 48.89849 | 2.92461 | 6753 ft | 263 kts | 314° |
| 2026-04-20 07:02 | 48.91084 | 2.90403 | 6630 ft | 263 kts | 314° |
| 2026-04-20 07:02 | 48.92298 | 2.88313 | 6499 ft | 264 kts | 308° |
| 2026-04-20 07:03 | 48.93173 | 2.85862 | 6365 ft | 266 kts | 291° |
| 2026-04-20 07:03 | 48.93558 | 2.83105 | 6234 ft | 268 kts | 275° |
| 2026-04-20 07:03 | 48.93475 | 2.80270 | 6108 ft | 269 kts | 268° |
| 2026-04-20 07:03 | 48.93319 | 2.77425 | 5976 ft | 269 kts | 268° |
| 2026-04-20 07:04 | 48.93170 | 2.74595 | 5845 ft | 269 kts | 268° |
| 2026-04-20 07:04 | 48.93020 | 2.71729 | 5711 ft | 268 kts | 268° |
| 2026-04-20 07:04 | 48.92873 | 2.68906 | 5579 ft | 268 kts | 268° |
| 2026-04-20 07:04 | 48.92726 | 2.66084 | 5450 ft | 267 kts | 267° |
| 2026-04-20 07:05 | 48.92575 | 2.63271 | 5321 ft | 267 kts | 268° |
| 2026-04-20 07:05 | 48.92421 | 2.60455 | 5188 ft | 268 kts | 268° |
| 2026-04-20 07:05 | 48.92267 | 2.57628 | 5057 ft | 268 kts | 267° |
| 2026-04-20 07:05 | 48.92110 | 2.54778 | 4943 ft | 268 kts | 268° |
| 2026-04-20 07:06 | 48.91958 | 2.51967 | 5005 ft | 268 kts | 268° |
| 2026-04-20 07:06 | 48.91808 | 2.49138 | 5017 ft | 268 kts | 268° |
| 2026-04-20 07:06 | 48.91651 | 2.46256 | 5020 ft | 268 kts | 268° |
| 2026-04-20 07:06 | 48.91547 | 2.44362 | 5007 ft | 268 kts | 268° |
| 2026-04-20 07:07 | 48.91396 | 2.41553 | 5007 ft | 268 kts | 268° |
| 2026-04-20 07:07 | 48.91237 | 2.38726 | 5013 ft | 268 kts | 267° |
| 2026-04-20 07:07 | 48.91075 | 2.35907 | 5020 ft | 268 kts | 268° |
| 2026-04-20 07:07 | 48.90911 | 2.33052 | 5007 ft | 268 kts | 267° |
| 2026-04-20 07:08 | 48.90749 | 2.30232 | 5007 ft | 268 kts | 268° |
| 2026-04-20 07:08 | 48.90585 | 2.27415 | 5012 ft | 268 kts | 268° |
| 2026-04-20 07:08 | 48.90420 | 2.24596 | 4983 ft | 268 kts | 268° |
| 2026-04-20 07:08 | 48.90258 | 2.21773 | 4983 ft | 268 kts | 268° |
| 2026-04-20 07:09 | 48.90097 | 2.18956 | 4993 ft | 267 kts | 267° |
| 2026-04-20 07:09 | 48.89937 | 2.16219 | 4987 ft | 251 kts | 267° |
| 2026-04-20 07:09 | 48.89783 | 2.13636 | 4982 ft | 235 kts | 267° |
| 2026-04-20 07:09 | 48.89768 | 2.11249 | 4989 ft | 219 kts | 284° |
| 2026-04-20 07:10 | 48.90305 | 2.09201 | 4987 ft | 203 kts | 308° |
| 2026-04-20 07:10 | 48.91273 | 2.07713 | 4987 ft | 196 kts | 329° |
| 2026-04-20 07:10 | 48.92505 | 2.06894 | 5003 ft | 192 kts | 351° |
| 2026-04-20 07:10 | 48.93827 | 2.06823 | 5005 ft | 191 kts | 11° |
| 2026-04-20 07:11 | 48.95065 | 2.07487 | 5009 ft | 190 kts | 30° |
| 2026-04-20 07:11 | 48.96063 | 2.08803 | 5009 ft | 192 kts | 51° |
| 2026-04-20 07:11 | 48.96669 | 2.10618 | 5007 ft | 196 kts | 73° |
| 2026-04-20 07:11 | 48.96843 | 2.12687 | 5015 ft | 198 kts | 81° |
| 2026-04-20 07:12 | 48.96963 | 2.14786 | 5005 ft | 197 kts | 82° |
| 2026-04-20 07:12 | 48.97083 | 2.16873 | 5012 ft | 198 kts | 83° |
| 2026-04-20 07:12 | 48.97203 | 2.18967 | 5007 ft | 198 kts | 82° |
| 2026-04-20 07:12 | 48.97322 | 2.21053 | 4963 ft | 200 kts | 81° |
| 2026-04-20 07:13 | 48.97442 | 2.23163 | 4753 ft | 200 kts | 81° |
| 2026-04-20 07:13 | 48.97561 | 2.25270 | 4495 ft | 201 kts | 82° |
| 2026-04-20 07:13 | 48.97681 | 2.27392 | 4222 ft | 202 kts | 83° |
| 2026-04-20 07:13 | 48.97802 | 2.29530 | 3946 ft | 203 kts | 82° |
| 2026-04-20 07:14 | 48.97924 | 2.31704 | 3662 ft | 204 kts | 82° |
| 2026-04-20 07:14 | 48.98044 | 2.33856 | 3384 ft | 204 kts | 82° |
| 2026-04-20 07:14 | 48.98165 | 2.36018 | 3101 ft | 205 kts | 83° |
| 2026-04-20 07:14 | 48.98286 | 2.38201 | 2827 ft | 206 kts | 82° |
| 2026-04-20 07:15 | 48.98405 | 2.40351 | 2545 ft | 204 kts | 82° |
| 2026-04-20 07:15 | 48.98519 | 2.42427 | 2263 ft | 191 kts | 82° |
| 2026-04-20 07:15 | 48.98627 | 2.44397 | 2000 ft | 183 kts | 82° |
| 2026-04-20 07:15 | 48.98728 | 2.46255 | 1750 ft | 169 kts | 81° |
| 2026-04-20 07:16 | 48.98822 | 2.47964 | 1533 ft | 154 kts | 81° |
| 2026-04-20 07:16 | 48.98905 | 2.49501 | 1328 ft | 139 kts | 82° |
| 2026-04-20 07:16 | 48.98984 | 2.50942 | 1126 ft | 136 kts | 81° |
| 2026-04-20 07:16 | 48.99063 | 2.52369 | 934 ft | 137 kts | 81° |
| 2026-04-20 07:17 | 48.99141 | 2.53803 | 751 ft | 134 kts | 81° |
| 2026-04-20 07:17 | 48.99220 | 2.55230 | 562 ft | 135 kts | 80° |
| 2026-04-20 07:17 | 48.99290 | 2.56642 | 369 ft | 129 kts | 81° |
| 2026-04-20 07:17 | 48.99367 | 2.57805 | 356 ft | 88 kts | 88° |
| 2026-04-20 07:18 | 48.99400 | 2.58563 | 353 ft | 61 kts | 85° |
| 2026-04-20 07:18 | 48.99445 | 2.59133 | 353 ft | 40 kts | 82° |
| 2026-04-20 07:18 | 48.99508 | 2.59380 | 359 ft | 22 kts | 66° |
| 2026-04-20 07:18 | 48.99571 | 2.59593 | 362 ft | 22 kts | 65° |
| 2026-04-20 07:19 | 48.99665 | 2.59689 | 354 ft | 18 kts | 1° |
| 2026-04-20 07:19 | 48.99795 | 2.59674 | 356 ft | 20 kts | 355° |
| 2026-04-20 07:19 | 48.99935 | 2.59657 | 358 ft | 20 kts | 356° |
| 2026-04-20 07:19 | 49.00078 | 2.59643 | 356 ft | 21 kts | 356° |
| 2026-04-20 07:20 | 49.00227 | 2.59627 | 354 ft | 22 kts | 355° |
| 2026-04-20 07:20 | 49.00381 | 2.59609 | 354 ft | 23 kts | 355° |
| 2026-04-20 07:20 | 49.00541 | 2.59591 | 354 ft | 23 kts | 356° |
| 2026-04-20 07:20 | 49.00704 | 2.59568 | 358 ft | 24 kts | 354° |
| 2026-04-20 07:21 | 49.00872 | 2.59546 | 354 ft | 25 kts | 355° |
| 2026-04-20 07:21 | 49.00983 | 2.59519 | 359 ft | 15 kts | 320° |
| 2026-04-20 07:21 | 49.00997 | 2.59366 | 356 ft | 15 kts | 263° |
| 2026-04-20 07:21 | 49.00987 | 2.59215 | 354 ft | 13 kts | 264° |
| 2026-04-20 07:22 | 49.00978 | 2.59050 | 357 ft | 17 kts | 264° |
| 2026-04-20 07:22 | 49.00952 | 2.58888 | 362 ft | 15 kts | 260° |
| 2026-04-20 07:22 | 49.00940 | 2.58740 | 354 ft | 13 kts | 264° |
| 2026-04-20 07:22 | 49.00932 | 2.58606 | 354 ft | 12 kts | 264° |
| 2026-04-20 07:23 | 49.00925 | 2.58477 | 358 ft | 15 kts | 266° |
| 2026-04-20 07:23 | 49.00917 | 2.58298 | 354 ft | 17 kts | 266° |
| 2026-04-20 07:23 | 49.00903 | 2.58143 | 356 ft | 12 kts | 242° |
| 2026-04-20 07:23 | 49.00835 | 2.58110 | 359 ft | 10 kts | 176° |
| 2026-04-20 07:24 | 49.00770 | 2.58101 | 358 ft | 9 kts | 205° |
| 2026-04-20 07:24 | 49.00734 | 2.58034 | 356 ft | 8 kts | 235° |
| 2026-04-20 07:24 | 49.00714 | 2.57997 | 357 ft | 0 kts | 230° |